Time;durP1;ratioP1;P1;durP2;ratioP2;P2;SDS_P1;SDS_P2;PMS_P1;PMS_P2;Temp;Humidity;BMP_temperature;BMP_pressure;BME280_temperature;BME280_humidity;BME280_pressure;Samples;Min_cycle;Max_cycle;Signal;HPM_P1;HPM_P2
2023/08/27 00:01:08;;;;;;;2.63;2.42;;;;;;;18.78;63.23;96726.41;4882617;28;20043;-82
2023/08/27 00:03:33;;;;;;;2.85;2.47;;;;;;;18.79;63.08;96730.59;4862464;29;20745;-82
2023/08/27 00:05:59;;;;;;;3.85;2.10;;;;;;;18.77;63.18;96714.31;4877882;29;20166;-81
2023/08/27 00:08:24;;;;;;;2.83;2.63;;;;;;;18.78;63.08;96712.44;4863842;29;20929;-81
2023/08/27 00:10:52;;;;;;;3.15;2.72;;;;;;;18.74;62.85;96711.50;4862612;29;20294;-81
2023/08/27 00:13:18;;;;;;;3.22;2.40;;;;;;;18.73;63.53;96726.56;4850998;29;20031;-80
2023/08/27 00:15:46;;;;;;;2.60;2.40;;;;;;;18.75;63.66;96716.47;4886082;29;20801;-81
2023/08/27 00:18:12;;;;;;;2.60;2.33;;;;;;;18.76;63.19;96715.38;4853922;29;20042;-81
2023/08/27 00:20:39;;;;;;;2.80;2.60;;;;;;;18.65;63.66;96706.22;4856220;29;20644;-80
2023/08/27 00:23:04;;;;;;;2.65;2.40;;;;;;;18.67;64.02;96715.38;4866952;29;20031;-81
2023/08/27 00:25:30;;;;;;;2.88;2.40;;;;;;;18.71;63.05;96716.31;4868529;29;20096;-81
2023/08/27 00:27:55;;;;;;;3.03;2.72;;;;;;;18.72;62.59;96727.63;4850612;28;20046;-81
2023/08/27 00:30:20;;;;;;;4.20;2.53;;;;;;;18.84;61.83;96733.13;4881920;29;20054;-82
2023/08/27 00:32:46;;;;;;;3.88;2.45;;;;;;;18.86;62.12;96733.56;4842397;29;20040;-81
2023/08/27 00:35:11;;;;;;;2.60;2.40;;;;;;;18.81;61.84;96738.97;4874541;28;20035;-82
2023/08/27 00:37:37;;;;;;;2.80;2.50;;;;;;;18.68;62.18;96730.13;4845532;29;20039;-82
2023/08/27 00:40:03;;;;;;;2.85;2.53;;;;;;;18.57;63.02;96715.66;4846561;29;20031;-81
2023/08/27 00:42:29;;;;;;;2.78;2.05;;;;;;;18.61;62.22;96729.00;4843406;29;20046;-81
2023/08/27 00:44:54;;;;;;;3.30;2.30;;;;;;;18.60;62.16;96722.97;4828780;29;20733;-81
2023/08/27 00:47:19;;;;;;;4.15;2.97;;;;;;;18.56;63.33;96716.75;4828646;29;20043;-82
2023/08/27 00:49:45;;;;;;;3.00;2.05;;;;;;;18.57;63.52;96713.03;4846105;28;20689;-82
2023/08/27 00:52:11;;;;;;;3.88;2.67;;;;;;;18.60;63.64;96711.66;4859735;29;20038;-82
2023/08/27 00:54:37;;;;;;;2.88;2.42;;;;;;;18.64;64.19;96715.97;4845796;29;20031;-82
2023/08/27 00:57:05;;;;;;;3.38;2.97;;;;;;;18.63;63.76;96721.59;4860117;29;20027;-81
2023/08/27 00:59:31;;;;;;;3.00;2.80;;;;;;;18.57;64.21;96714.88;4848670;29;20301;-81
2023/08/27 01:01:56;;;;;;;3.47;2.53;;;;;;;18.49;64.20;96695.31;4882190;23;20137;-81
2023/08/27 01:04:21;;;;;;;5.05;2.38;;;;;;;18.58;63.70;96695.38;4861977;28;20281;-81
2023/08/27 01:06:47;;;;;;;3.13;2.13;;;;;;;18.68;63.69;96695.84;4886138;28;20104;-81
2023/08/27 01:09:27;;;;;;;3.35;2.58;;;;;;;18.74;63.78;96703.59;4855991;28;20579;-81
2023/08/27 01:12:13;;;;;;;4.43;2.28;;;;;;;18.73;63.54;96700.19;4891155;28;20211;-81
2023/08/27 01:14:42;;;;;;;5.10;2.53;;;;;;;18.69;63.56;96691.31;4872952;29;20226;-81
2023/08/27 01:17:10;;;;;;;2.58;2.35;;;;;;;18.63;63.15;96689.94;4873552;28;20595;-81
2023/08/27 01:19:36;;;;;;;3.35;2.47;;;;;;;18.58;63.21;96682.19;4891041;28;20291;-81
2023/08/27 01:22:02;;;;;;;2.60;2.20;;;;;;;18.51;63.47;96693.94;4858927;28;20489;-81
2023/08/27 01:24:27;;;;;;;2.95;2.50;;;;;;;18.56;63.86;96687.75;4892144;28;20253;-81
2023/08/27 01:27:00;;;;;;;2.97;2.35;;;;;;;18.63;62.87;96688.06;4888876;28;20319;-81
2023/08/27 01:29:41;;;;;;;2.75;2.33;;;;;;;18.62;62.65;96683.09;4875734;28;20245;-82
2023/08/27 01:32:47;;;;;;;2.85;2.47;;;;;;;18.65;62.77;96688.53;4881020;28;20191;-81
2023/08/27 01:35:14;;;;;;;2.90;2.10;;;;;;;18.52;62.42;96669.16;4888315;28;20314;-81
2023/08/27 01:37:40;;;;;;;3.90;2.72;;;;;;;18.45;63.25;96658.25;4906226;28;20497;-81
2023/08/27 01:40:08;;;;;;;4.55;2.42;;;;;;;18.49;63.83;96653.94;4884777;28;20186;-81
2023/08/27 01:42:37;;;;;;;3.90;2.30;;;;;;;18.48;64.25;96657.66;4899188;28;20191;-81
2023/08/27 01:45:04;;;;;;;3.58;2.50;;;;;;;18.53;64.04;96668.03;4889389;28;20214;-82
2023/08/27 01:47:30;;;;;;;2.70;2.50;;;;;;;18.57;63.62;96683.25;4874829;28;20281;-81
2023/08/27 01:49:58;;;;;;;2.92;2.50;;;;;;;18.58;63.41;96679.53;4866277;28;20262;-81
2023/08/27 01:52:23;;;;;;;3.53;2.70;;;;;;;18.49;64.44;96650.50;4889302;28;20318;-80
2023/08/27 01:54:49;;;;;;;2.50;2.30;;;;;;;18.50;63.71;96652.06;4889882;28;20264;-81
2023/08/27 01:57:14;;;;;;;2.60;2.40;;;;;;;18.55;63.63;96664.34;4891682;28;20285;-81
2023/08/27 01:59:40;;;;;;;3.40;2.60;;;;;;;18.61;63.61;96665.72;4874159;28;20210;-81
2023/08/27 02:02:05;;;;;;;2.97;2.53;;;;;;;18.55;63.99;96657.19;4858477;28;20279;-80
2023/08/27 02:04:31;;;;;;;3.83;2.25;;;;;;;18.55;64.51;96649.28;4889888;28;20236;-81
2023/08/27 02:06:57;;;;;;;2.85;2.50;;;;;;;18.53;64.19;96641.69;4889428;28;20188;-81
2023/08/27 02:09:22;;;;;;;3.42;2.40;;;;;;;18.51;64.82;96635.94;4870350;28;20201;-81
2023/08/27 02:11:49;;;;;;;5.53;3.08;;;;;;;18.56;64.72;96634.22;4886357;28;20292;-81
2023/08/27 02:14:15;;;;;;;3.30;2.70;;;;;;;18.57;64.71;96635.78;4871162;28;20289;-81
2023/08/27 02:16:40;;;;;;;3.45;2.97;;;;;;;18.57;64.36;96647.09;4873866;28;20731;-81
2023/08/27 02:19:06;;;;;;;2.92;2.38;;;;;;;18.53;64.15;96638.28;4878731;28;20217;-81
2023/08/27 02:21:31;;;;;;;4.50;2.92;;;;;;;18.59;63.92;96654.72;4888918;28;20179;-81
2023/08/27 02:23:56;;;;;;;3.22;2.88;;;;;;;18.58;64.44;96650.53;4862229;29;20729;-82
2023/08/27 02:26:22;;;;;;;3.03;2.40;;;;;;;18.63;64.07;96648.53;4888290;28;20534;-80
2023/08/27 02:28:47;;;;;;;3.28;2.65;;;;;;;18.72;63.82;96643.25;4855490;29;20226;-81
2023/08/27 02:31:13;;;;;;;3.03;2.70;;;;;;;18.87;64.07;96649.97;4858226;28;20116;-81
2023/08/27 02:33:39;;;;;;;2.60;2.40;;;;;;;18.82;63.39;96658.78;4889019;28;20183;-81
2023/08/27 02:36:05;;;;;;;2.55;2.30;;;;;;;18.77;63.22;96666.84;4858281;28;20269;-81
2023/08/27 02:38:30;;;;;;;3.22;2.33;;;;;;;18.75;63.22;96665.56;4890293;28;20294;-81
2023/08/27 02:40:56;;;;;;;2.92;2.42;;;;;;;18.70;63.36;96659.38;4870650;28;20232;-81
2023/08/27 02:43:21;;;;;;;2.60;2.25;;;;;;;18.66;63.68;96660.28;4873305;28;20255;-81
2023/08/27 02:45:47;;;;;;;2.63;2.42;;;;;;;18.63;64.13;96660.94;4873377;28;20288;-81
2023/08/27 02:48:13;;;;;;;2.13;2.00;;;;;;;18.65;64.25;96661.41;4889545;28;20286;-81
2023/08/27 02:50:38;;;;;;;2.80;2.10;;;;;;;18.75;63.18;96662.94;4872985;28;20198;-81
2023/08/27 02:53:04;;;;;;;2.85;2.10;;;;;;;18.76;63.23;96654.72;4887800;28;20108;-81
2023/08/27 02:55:31;;;;;;;2.63;2.42;;;;;;;18.62;63.68;96638.28;4887677;28;20266;-81
2023/08/27 02:57:58;;;;;;;2.95;2.35;;;;;;;18.59;63.21;96638.91;4889383;28;20573;-81
2023/08/27 03:00:24;;;;;;;3.42;2.40;;;;;;;18.63;63.14;96642.47;4855242;28;20200;-81
2023/08/27 03:02:49;;;;;;;2.47;2.28;;;;;;;18.55;63.62;96653.78;4867522;29;20296;-81
2023/08/27 03:05:15;;;;;;;2.35;2.15;;;;;;;18.48;64.31;96657.66;4864292;28;20289;-81
2023/08/27 03:07:40;;;;;;;2.47;1.80;;;;;;;18.47;63.53;96648.19;4889375;28;20286;-81
2023/08/27 03:10:06;;;;;;;2.35;2.10;;;;;;;18.40;63.62;96642.59;4872745;28;20199;-81
2023/08/27 03:12:32;;;;;;;2.88;2.13;;;;;;;18.42;63.58;96652.81;4871729;28;20348;-81
2023/08/27 03:14:57;;;;;;;3.05;2.30;;;;;;;18.55;63.22;96657.19;4870388;28;20668;-81
2023/08/27 03:17:22;;;;;;;3.08;2.13;;;;;;;18.55;63.37;96656.41;4870866;28;20331;-81
2023/08/27 03:19:48;;;;;;;2.45;2.25;;;;;;;18.40;63.20;96634.69;4892865;28;20281;-81
2023/08/27 03:22:13;;;;;;;3.05;2.40;;;;;;;18.59;62.81;96642.28;4868787;28;20201;-80
2023/08/27 03:24:39;;;;;;;3.72;2.22;;;;;;;18.43;63.17;96636.69;4888651;28;20254;-81
2023/08/27 03:27:06;;;;;;;2.47;1.92;;;;;;;18.42;64.17;96626.47;4903625;28;20198;-81
2023/08/27 03:29:32;;;;;;;2.47;2.00;;;;;;;18.31;63.73;96626.00;4865882;29;20192;-81
2023/08/27 03:31:57;;;;;;;2.33;2.13;;;;;;;18.33;63.96;96631.72;4870501;28;20357;-81
2023/08/27 03:34:23;;;;;;;2.58;2.10;;;;;;;18.36;63.94;96628.47;4854063;28;20199;-81
2023/08/27 03:36:48;;;;;;;1.98;1.77;;;;;;;18.36;63.57;96623.22;4869504;28;20662;-81
2023/08/27 03:39:13;;;;;;;2.30;1.90;;;;;;;18.31;63.70;96624.13;4872024;28;20228;-81
2023/08/27 03:41:39;;;;;;;2.30;2.10;;;;;;;18.29;64.20;96620.25;4867310;28;20171;-81
2023/08/27 03:44:04;;;;;;;2.92;1.70;;;;;;;18.28;64.12;96619.50;4887483;28;20165;-81
2023/08/27 03:46:30;;;;;;;3.00;1.70;;;;;;;18.31;63.91;96616.22;4875118;28;20175;-81
2023/08/27 03:49:02;;;;;;;3.22;2.22;;;;;;;18.31;63.97;96613.59;4887455;28;20116;-81
2023/08/27 03:51:28;;;;;;;3.10;2.00;;;;;;;18.29;63.80;96609.72;4856408;28;20326;-81
2023/08/27 03:54:00;;;;;;;4.50;1.95;;;;;;;18.36;63.79;96606.63;4887247;28;20277;-81
2023/08/27 03:56:26;;;;;;;3.00;1.70;;;;;;;18.30;64.27;96606.78;4889999;28;20596;-81
2023/08/27 03:59:00;;;;;;;2.80;1.67;;;;;;;18.32;63.80;96606.47;4872442;28;20277;-80
2023/08/27 04:01:26;;;;;;;2.30;2.10;;;;;;;18.33;63.75;96603.53;4869603;28;20224;-81
2023/08/27 04:03:53;;;;;;;4.15;2.13;;;;;;;18.26;63.26;96591.88;4860960;28;20608;-81
2023/08/27 04:06:19;;;;;;;1.90;1.80;;;;;;;18.34;63.78;96593.75;4867588;28;20203;-81
2023/08/27 04:08:44;;;;;;;2.85;1.95;;;;;;;18.42;63.57;96608.00;4870509;28;20275;-81
2023/08/27 04:11:12;;;;;;;2.13;1.92;;;;;;;18.29;63.61;96607.09;4850278;28;20372;-82
2023/08/27 04:13:38;;;;;;;2.30;2.10;;;;;;;18.26;63.43;96611.09;4870892;28;20175;-80
2023/08/27 04:16:05;;;;;;;2.33;1.70;;;;;;;18.21;63.22;96603.34;4870518;28;20287;-80
2023/08/27 04:18:32;;;;;;;2.95;2.10;;;;;;;18.17;63.07;96599.00;4875928;28;20566;-80
2023/08/27 04:20:58;;;;;;;3.47;2.25;;;;;;;18.17;63.24;96609.53;4857024;28;20588;-80
2023/08/27 04:23:23;;;;;;;1.73;1.63;;;;;;;18.08;64.11;96607.66;4874068;28;20190;-79
2023/08/27 04:25:48;;;;;;;2.92;1.88;;;;;;;18.07;64.46;96606.09;4873611;28;20641;-79
2023/08/27 04:28:15;;;;;;;2.97;2.05;;;;;;;18.06;64.45;96607.19;4860712;28;20251;-79
2023/08/27 04:30:41;;;;;;;1.80;1.70;;;;;;;18.03;64.33;96610.44;4875793;28;20282;-80
2023/08/27 04:33:06;;;;;;;2.47;2.05;;;;;;;18.03;63.84;96604.41;4877119;28;20301;-79
2023/08/27 04:35:32;;;;;;;3.63;2.08;;;;;;;17.95;64.50;96593.50;4876765;28;20609;-79
2023/08/27 04:37:57;;;;;;;1.73;1.63;;;;;;;18.01;64.26;96599.44;4892284;28;20622;-79
2023/08/27 04:40:22;;;;;;;2.28;1.90;;;;;;;18.00;64.41;96603.16;4874841;28;20263;-80
2023/08/27 04:42:48;;;;;;;1.70;1.60;;;;;;;17.96;64.53;96602.22;4889659;28;20688;-80
2023/08/27 04:45:14;;;;;;;2.33;1.60;;;;;;;17.96;64.22;96600.34;4891551;28;20202;-79
2023/08/27 04:47:40;;;;;;;3.25;2.03;;;;;;;18.04;63.81;96617.25;4876166;28;20595;-80
2023/08/27 04:50:07;;;;;;;2.35;2.13;;;;;;;18.07;63.05;96615.88;4890864;28;20194;-79
2023/08/27 04:52:33;;;;;;;2.60;1.70;;;;;;;18.11;62.85;96622.88;4890641;28;20197;-80
2023/08/27 04:54:59;;;;;;;4.35;1.65;;;;;;;18.08;63.46;96617.44;4859561;28;20195;-80
2023/08/27 04:57:24;;;;;;;2.63;2.10;;;;;;;18.10;63.49;96623.94;4874358;28;20294;-80
2023/08/27 04:59:50;;;;;;;4.03;1.80;;;;;;;18.12;63.71;96626.25;4872107;28;20277;-80
2023/08/27 05:02:15;;;;;;;2.30;1.60;;;;;;;18.13;63.86;96636.50;4886704;28;20308;-80
2023/08/27 05:04:41;;;;;;;2.80;1.95;;;;;;;17.91;64.38;96628.69;4859106;28;20231;-80
2023/08/27 05:07:06;;;;;;;2.75;2.28;;;;;;;18.10;64.77;96631.84;4888623;28;20218;-80
2023/08/27 05:09:31;;;;;;;3.08;2.28;;;;;;;18.13;65.01;96630.47;4889649;28;20649;-80
2023/08/27 05:11:57;;;;;;;3.20;2.33;;;;;;;18.15;65.25;96634.31;4888348;28;20453;-80
2023/08/27 05:14:22;;;;;;;4.63;2.75;;;;;;;18.15;65.39;96623.78;4875005;28;20561;-80
2023/08/27 05:16:48;;;;;;;2.88;2.33;;;;;;;18.25;65.44;96621.94;4868846;28;20194;-80
2023/08/27 05:19:13;;;;;;;2.78;2.50;;;;;;;18.26;65.49;96632.19;4877974;28;20194;-79
2023/08/27 05:21:39;;;;;;;4.03;2.70;;;;;;;18.27;65.04;96627.69;4871033;28;20111;-80
2023/08/27 05:24:04;;;;;;;2.65;2.28;;;;;;;18.26;66.49;96621.63;4889085;28;20414;-80
2023/08/27 05:26:30;;;;;;;4.10;3.03;;;;;;;18.33;65.64;96605.38;4888309;28;20104;-80
2023/08/27 05:28:56;;;;;;;3.50;2.75;;;;;;;18.31;66.22;96591.72;4889089;28;20524;-80
2023/08/27 05:31:21;;;;;;;3.10;2.83;;;;;;;18.38;66.05;96593.91;4857230;28;20208;-80
2023/08/27 05:33:47;;;;;;;3.97;2.80;;;;;;;18.45;66.13;96589.72;4874653;28;20218;-80
2023/08/27 05:36:12;;;;;;;4.15;3.03;;;;;;;18.45;65.97;96588.94;4857235;28;20803;-80
2023/08/27 05:38:40;;;;;;;3.28;2.97;;;;;;;18.48;66.49;96593.59;4887908;28;20160;-80
2023/08/27 05:41:05;;;;;;;3.17;2.50;;;;;;;18.59;65.88;96600.09;4886453;28;20205;-80
2023/08/27 05:43:31;;;;;;;3.47;2.92;;;;;;;18.69;65.25;96614.84;4873942;28;20628;-80
2023/08/27 05:45:56;;;;;;;3.75;2.85;;;;;;;18.71;65.62;96605.56;4856607;28;20628;-80
2023/08/27 05:48:22;;;;;;;3.45;3.15;;;;;;;18.75;65.42;96604.91;4873369;28;20364;-80
2023/08/27 05:50:47;;;;;;;3.40;3.10;;;;;;;18.83;65.79;96604.16;4859902;28;20164;-80
2023/08/27 05:53:14;;;;;;;3.70;3.42;;;;;;;18.85;65.77;96584.31;4858751;28;20302;-80
2023/08/27 05:55:39;;;;;;;3.60;3.05;;;;;;;18.90;65.36;96586.81;4889073;28;20815;-80
2023/08/27 05:58:05;;;;;;;3.20;2.90;;;;;;;18.95;65.36;96588.47;4869084;28;20370;-80
2023/08/27 06:00:30;;;;;;;3.25;2.78;;;;;;;18.98;65.29;96606.31;4871665;28;20035;-80
2023/08/27 06:02:55;;;;;;;3.47;3.03;;;;;;;19.01;65.78;96602.31;4856059;28;20194;-80
2023/08/27 06:05:21;;;;;;;3.78;2.65;;;;;;;19.03;65.32;96602.75;4871382;28;20291;-80
2023/08/27 06:07:46;;;;;;;5.15;3.08;;;;;;;19.00;65.36;96595.47;4855956;28;20340;-79
2023/08/27 06:10:12;;;;;;;3.33;3.03;;;;;;;19.00;65.00;96596.22;4857059;28;20757;-80
2023/08/27 06:12:37;;;;;;;2.58;2.38;;;;;;;19.13;64.91;96617.50;4864736;28;20210;-79
2023/08/27 06:15:04;;;;;;;3.05;2.72;;;;;;;19.17;65.16;96618.41;4867798;28;20245;-80
2023/08/27 06:17:30;;;;;;;2.97;2.60;;;;;;;19.22;65.50;96615.59;4870954;28;20185;-80
2023/08/27 06:19:55;;;;;;;3.83;2.92;;;;;;;19.31;65.28;96612.94;4889581;28;20609;-80
2023/08/27 06:22:21;;;;;;;3.72;2.97;;;;;;;19.41;65.32;96617.88;4870926;28;20818;-80
2023/08/27 06:24:46;;;;;;;3.78;3.38;;;;;;;19.45;65.69;96606.41;4870839;28;20214;-79
2023/08/27 06:27:14;;;;;;;5.72;3.53;;;;;;;19.56;65.98;96609.44;4855427;28;20238;-79
2023/08/27 06:29:39;;;;;;;3.08;2.65;;;;;;;19.68;65.71;96605.38;4886446;28;20108;-80
2023/08/27 06:32:05;;;;;;;3.00;2.70;;;;;;;19.75;64.78;96595.13;4871351;28;20223;-80
2023/08/27 06:34:30;;;;;;;4.03;2.97;;;;;;;19.83;64.59;96600.38;4888699;28;20621;-79
2023/08/27 06:36:56;;;;;;;5.32;3.58;;;;;;;19.81;65.16;96604.44;4889303;28;20312;-80
2023/08/27 06:39:21;;;;;;;3.42;3.13;;;;;;;19.85;64.85;96618.53;4888541;28;20475;-80
2023/08/27 06:41:47;;;;;;;3.67;3.35;;;;;;;19.89;64.56;96616.81;4889171;28;20605;-79
2023/08/27 06:44:12;;;;;;;5.72;3.38;;;;;;;19.88;64.16;96607.34;4872268;28;20646;-79
2023/08/27 06:46:37;;;;;;;3.35;3.05;;;;;;;19.86;64.75;96606.91;4870898;28;20209;-79
2023/08/27 06:49:03;;;;;;;3.22;2.92;;;;;;;19.93;65.35;96617.72;4873220;28;20375;-80
2023/08/27 06:51:29;;;;;;;3.47;2.85;;;;;;;19.93;65.09;96628.31;4873165;28;20581;-79
2023/08/27 06:53:54;;;;;;;3.55;3.22;;;;;;;19.97;64.29;96634.50;4871869;28;20164;-80
2023/08/27 06:56:21;;;;;;;3.78;2.97;;;;;;;19.97;64.69;96625.78;4856431;28;20290;-79
2023/08/27 06:58:48;;;;;;;3.03;2.70;;;;;;;20.00;63.83;96631.22;4860034;28;20229;-80
2023/08/27 07:01:13;;;;;;;2.50;2.30;;;;;;;19.96;64.17;96611.81;4855053;28;20220;-79
2023/08/27 07:03:39;;;;;;;4.35;3.05;;;;;;;20.01;64.27;96614.28;4869719;28;20261;-80
2023/08/27 07:06:05;;;;;;;3.47;2.92;;;;;;;20.07;63.76;96616.75;4872638;28;20201;-80
2023/08/27 07:08:31;;;;;;;3.50;2.63;;;;;;;20.21;64.32;96609.34;4885228;28;20211;-79
2023/08/27 07:10:56;;;;;;;3.30;3.00;;;;;;;20.21;63.68;96596.13;4857889;28;20649;-79
2023/08/27 07:13:22;;;;;;;3.90;3.58;;;;;;;20.36;64.63;96603.47;4856325;28;20737;-80
2023/08/27 07:15:47;;;;;;;3.17;2.75;;;;;;;20.45;64.08;96602.66;4856535;28;20118;-80
2023/08/27 07:18:15;;;;;;;3.17;2.88;;;;;;;20.54;63.12;96603.34;4886890;28;20698;-80
2023/08/27 07:20:41;;;;;;;4.03;3.10;;;;;;;20.59;63.91;96616.38;4871959;28;20506;-80
2023/08/27 07:23:06;;;;;;;3.83;2.83;;;;;;;20.67;63.64;96623.50;4888077;28;20191;-79
2023/08/27 07:25:34;;;;;;;3.30;2.60;;;;;;;20.66;62.93;96629.88;4888675;28;20280;-79
2023/08/27 07:27:59;;;;;;;3.03;2.70;;;;;;;20.71;62.58;96631.56;4858461;28;20210;-79
2023/08/27 07:30:25;;;;;;;3.33;2.70;;;;;;;20.71;62.82;96629.69;4891385;28;20176;-80
2023/08/27 07:32:51;;;;;;;3.30;3.03;;;;;;;20.76;62.82;96631.38;4873173;28;20352;-80
2023/08/27 07:35:17;;;;;;;3.42;3.10;;;;;;;20.76;62.68;96623.44;4888716;28;20672;-79
2023/08/27 07:37:43;;;;;;;3.47;3.13;;;;;;;20.81;63.15;96636.47;4870711;28;20215;-80
2023/08/27 07:40:09;;;;;;;3.40;3.10;;;;;;;20.81;62.79;96635.72;4858149;28;20236;-79
2023/08/27 07:42:35;;;;;;;3.65;2.83;;;;;;;20.76;62.77;96634.03;4872902;28;20197;-79
2023/08/27 07:45:02;;;;;;;3.95;2.60;;;;;;;20.87;61.91;96647.63;4858748;28;20307;-80
2023/08/27 07:47:27;;;;;;;3.42;2.67;;;;;;;20.82;62.24;96650.47;4864799;28;20202;-79
2023/08/27 07:49:53;;;;;;;3.40;2.60;;;;;;;20.75;62.92;96648.34;4867859;28;20710;-79
2023/08/27 07:52:18;;;;;;;2.97;2.67;;;;;;;20.70;63.48;96643.25;4874592;28;20383;-79
2023/08/27 07:54:43;;;;;;;3.40;2.80;;;;;;;20.64;63.45;96642.66;4876326;28;20218;-79
2023/08/27 07:57:09;;;;;;;3.58;2.95;;;;;;;20.70;62.70;96651.97;4871754;28;20658;-79
2023/08/27 07:59:35;;;;;;;4.78;3.15;;;;;;;20.63;62.95;96649.06;4875382;28;20167;-80
2023/08/27 08:02:00;;;;;;;3.92;2.60;;;;;;;20.55;63.17;96642.72;4890323;28;20255;-80
2023/08/27 08:04:25;;;;;;;3.10;2.88;;;;;;;20.53;63.23;96649.44;4863352;28;20226;-80
2023/08/27 08:06:51;;;;;;;5.75;2.88;;;;;;;20.56;63.34;96649.56;4875094;28;20722;-80
2023/08/27 08:09:16;;;;;;;3.15;2.95;;;;;;;20.58;63.50;96647.34;4862860;28;20618;-80
2023/08/27 08:11:42;;;;;;;3.17;2.90;;;;;;;20.65;63.60;96646.88;4879363;28;20656;-81
2023/08/27 08:14:07;;;;;;;3.67;3.10;;;;;;;20.72;64.10;96633.91;4873278;28;20215;-80
2023/08/27 08:16:33;;;;;;;3.40;2.90;;;;;;;20.97;64.19;96651.75;4890005;28;20285;-81
2023/08/27 08:19:01;;;;;;;5.00;3.00;;;;;;;21.14;62.25;96651.59;4874684;28;20275;-80
2023/08/27 08:21:32;;;;;;;4.10;2.65;;;;;;;21.28;61.96;96662.69;4877253;28;20307;-80
2023/08/27 08:23:58;;;;;;;3.35;3.05;;;;;;;21.44;62.55;96675.31;4870630;28;20173;-80
2023/08/27 08:26:23;;;;;;;6.85;3.63;;;;;;;21.62;61.37;96691.81;4893027;28;20623;-80
2023/08/27 08:28:49;;;;;;;2.50;2.30;;;;;;;21.75;61.62;96688.09;4876376;28;20198;-80
2023/08/27 08:31:14;;;;;;;3.05;2.78;;;;;;;21.96;60.37;96695.19;4882876;28;20308;-79
2023/08/27 08:33:40;;;;;;;5.43;3.20;;;;;;;22.08;59.42;96685.38;4893889;28;20198;-79
2023/08/27 08:36:05;;;;;;;3.42;2.83;;;;;;;22.17;58.42;96692.44;4940252;23;20202;-81
2023/08/27 08:38:33;;;;;;;2.70;2.40;;;;;;;22.16;58.52;96694.31;4901197;28;20196;-81
2023/08/27 08:41:01;;;;;;;3.03;2.72;;;;;;;22.22;58.19;96685.03;4920120;28;20279;-81
2023/08/27 08:43:43;;;;;;;2.90;2.70;;;;;;;22.37;57.89;96686.28;4896533;28;20082;-81
2023/08/27 08:46:09;;;;;;;3.28;2.42;;;;;;;22.46;58.45;96682.72;4913090;28;20199;-79
2023/08/27 08:48:39;;;;;;;3.95;2.70;;;;;;;22.56;57.22;96683.03;4878641;28;20203;-78
2023/08/27 08:51:09;;;;;;;3.47;2.60;;;;;;;22.57;57.03;96681.94;4884393;28;20242;-81
2023/08/27 08:53:50;;;;;;;3.70;2.42;;;;;;;22.65;56.01;96684.81;4965852;23;20215;-81
2023/08/27 08:56:27;;;;;;;3.92;2.50;;;;;;;22.62;55.86;96688.91;4888391;28;20176;-81
2023/08/27 08:58:56;;;;;;;3.13;2.50;;;;;;;22.65;55.28;96685.56;5064566;23;20500;-78
2023/08/27 09:01:25;;;;;;;5.63;2.78;;;;;;;22.55;55.90;96684.16;4884954;28;20583;-79
2023/08/27 09:03:51;;;;;;;2.88;2.67;;;;;;;22.55;57.05;96673.56;4935270;23;20310;-81
2023/08/27 09:06:21;;;;;;;3.00;2.42;;;;;;;22.85;57.03;96670.59;4859904;29;20686;-81
2023/08/27 09:08:47;;;;;;;4.13;2.92;;;;;;;22.94;56.16;96668.56;4859354;29;20101;-80
2023/08/27 09:13:42;;;;;;;2.70;2.28;;;;;;;23.29;54.37;96662.72;4922366;28;20328;-80
2023/08/27 09:16:08;;;;;;;3.25;2.95;;;;;;;22.98;54.97;96661.50;4895931;28;20773;-81
2023/08/27 09:18:34;;;;;;;4.10;2.50;;;;;;;23.11;54.86;96653.50;4862810;28;20203;-80
2023/08/27 09:20:59;;;;;;;2.70;2.50;;;;;;;23.18;54.24;96661.66;4882653;28;20305;-80
2023/08/27 09:23:25;;;;;;;2.60;2.40;;;;;;;23.18;54.77;96664.31;4853395;28;20207;-80
2023/08/27 09:25:52;;;;;;;3.65;2.35;;;;;;;23.27;54.07;96658.84;4892286;28;20203;-80
2023/08/27 09:28:18;;;;;;;3.05;2.60;;;;;;;23.21;55.17;96658.31;4868745;28;20207;-80
2023/08/27 09:30:43;;;;;;;2.75;2.50;;;;;;;23.22;54.98;96659.09;4884189;28;20165;-80
2023/08/27 09:33:09;;;;;;;2.47;2.28;;;;;;;23.25;54.04;96656.53;4874794;28;20306;-80
2023/08/27 09:35:40;;;;;;;3.55;2.33;;;;;;;23.03;55.32;96627.84;5074411;23;20232;-80
2023/08/27 09:38:06;;;;;;;2.92;2.72;;;;;;;22.99;55.18;96639.13;4911923;23;20227;-80
2023/08/27 09:40:32;;;;;;;4.68;2.42;;;;;;;23.04;54.58;96629.38;4875121;28;20200;-80
2023/08/27 09:43:05;;;;;;;3.80;2.50;;;;;;;23.04;55.58;96632.03;4880993;28;20204;-80
2023/08/27 09:45:32;;;;;;;5.38;2.60;;;;;;;22.92;55.17;96627.56;4901866;28;20702;-80
2023/08/27 09:47:58;;;;;;;2.55;2.10;;;;;;;22.85;55.67;96644.06;4887685;28;20275;-80
2023/08/27 09:50:24;;;;;;;2.85;2.10;;;;;;;22.85;54.71;96645.94;4897943;28;20286;-80
2023/08/27 09:52:49;;;;;;;2.60;1.95;;;;;;;22.80;54.18;96638.97;4917758;28;20238;-79
2023/08/27 09:55:19;;;;;;;3.13;2.40;;;;;;;22.82;54.38;96644.72;4882286;28;20299;-80
2023/08/27 09:57:51;;;;;;;3.08;2.58;;;;;;;22.70;54.24;96644.75;4878603;28;20268;-80
2023/08/27 10:00:17;;;;;;;3.00;2.65;;;;;;;22.69;54.07;96651.16;4887830;28;20371;-79
2023/08/27 10:02:43;;;;;;;3.10;2.42;;;;;;;22.70;54.27;96653.50;4885868;28;20260;-79
2023/08/27 10:05:09;;;;;;;2.78;2.58;;;;;;;22.54;55.02;96624.25;4949825;23;20017;-80
2023/08/27 10:07:35;;;;;;;2.65;2.45;;;;;;;22.71;55.49;96649.75;4924989;23;20224;-80
2023/08/27 10:10:06;;;;;;;3.45;2.70;;;;;;;22.85;53.95;96652.00;5062218;23;20191;-80
2023/08/27 10:12:32;;;;;;;2.97;2.40;;;;;;;22.77;54.93;96653.72;4919873;28;20352;-81
2023/08/27 10:14:59;;;;;;;2.95;2.42;;;;;;;22.90;54.99;96656.31;4895680;28;20288;-80
2023/08/27 10:17:25;;;;;;;4.20;2.47;;;;;;;22.88;54.34;96655.91;4905981;28;20187;-79
2023/08/27 10:19:51;;;;;;;2.85;2.63;;;;;;;22.93;54.28;96640.50;4908451;28;20242;-80
2023/08/27 10:22:18;;;;;;;3.25;2.90;;;;;;;23.14;53.64;96635.00;5364889;23;20021;-80
2023/08/27 10:24:45;;;;;;;3.20;2.75;;;;;;;23.41;52.83;96643.28;4881569;28;20195;-79
2023/08/27 10:27:10;;;;;;;2.70;2.50;;;;;;;23.62;55.01;96637.72;4893745;28;20237;-80
2023/08/27 10:29:37;;;;;;;3.15;2.38;;;;;;;23.70;51.65;96638.66;4895467;28;20280;-80
2023/08/27 10:32:04;;;;;;;2.67;2.47;;;;;;;23.81;51.49;96641.59;4895391;28;20278;-81
2023/08/27 10:34:30;;;;;;;2.83;2.40;;;;;;;23.85;50.48;96645.88;4909321;28;20199;-80
2023/08/27 10:37:04;;;;;;;3.50;2.33;;;;;;;23.75;52.38;96636.53;4897414;28;20534;-80
2023/08/27 10:39:30;;;;;;;3.05;2.85;;;;;;;23.59;52.41;96641.06;4887257;28;20615;-80
2023/08/27 10:41:55;;;;;;;2.70;2.50;;;;;;;23.59;49.83;96649.03;4911436;28;20198;-79
2023/08/27 10:44:22;;;;;;;2.85;2.38;;;;;;;23.55;50.73;96637.56;4862551;28;20056;-79
2023/08/27 10:47:12;;;;;;;2.35;2.15;;;;;;;23.77;51.14;96646.03;4878882;28;20218;-80
2023/08/27 10:49:39;;;;;;;3.42;2.67;;;;;;;23.56;52.21;96647.06;4887689;28;20190;-80
2023/08/27 10:52:18;;;;;;;2.28;2.08;;;;;;;23.78;50.33;96647.59;4873669;28;20253;-80
2023/08/27 10:54:47;;;;;;;3.42;2.42;;;;;;;23.62;52.38;96652.91;4888682;28;20375;-80
2023/08/27 10:57:17;;;;;;;3.28;2.58;;;;;;;23.65;51.43;96652.22;4887410;28;20096;-80
2023/08/27 10:59:43;;;;;;;2.80;2.10;;;;;;;23.49;51.21;96650.31;4872497;28;20250;-80
2023/08/27 11:02:08;;;;;;;2.88;2.67;;;;;;;23.43;53.13;96648.25;4874199;28;20270;-79
2023/08/27 11:04:35;;;;;;;2.53;2.28;;;;;;;23.41;53.59;96650.47;4873623;28;20160;-80
2023/08/27 11:07:07;;;;;;;2.83;2.20;;;;;;;23.33;52.31;96636.25;4890378;28;20390;-79
2023/08/27 11:09:36;;;;;;;2.75;2.40;;;;;;;23.37;51.89;96632.56;4851247;28;20169;-79
2023/08/27 11:12:03;;;;;;;2.65;2.25;;;;;;;23.41;52.16;96642.50;4872085;28;20660;-79
2023/08/27 11:14:35;;;;;;;2.65;2.40;;;;;;;23.61;51.56;96652.13;4861512;28;20207;-80
2023/08/27 11:17:06;;;;;;;2.85;2.65;;;;;;;23.57;51.48;96648.59;4888061;28;20184;-80
2023/08/27 11:19:36;;;;;;;3.60;2.35;;;;;;;23.53;50.50;96642.44;4882503;28;20319;-80
2023/08/27 11:22:06;;;;;;;2.47;2.28;;;;;;;23.49;50.83;96647.66;4892417;28;20710;-80
2023/08/27 11:24:32;;;;;;;2.97;2.40;;;;;;;23.46;52.50;96644.91;4872108;28;20715;-79
2023/08/27 11:27:02;;;;;;;2.42;2.10;;;;;;;23.52;52.48;96646.19;4871152;28;20289;-79
2023/08/27 11:29:27;;;;;;;2.50;2.30;;;;;;;23.59;51.31;96650.94;4885434;28;20175;-79
2023/08/27 11:31:53;;;;;;;2.53;2.10;;;;;;;23.55;50.91;96645.53;4857434;28;20263;-79
2023/08/27 11:34:19;;;;;;;2.58;2.38;;;;;;;23.59;51.33;96646.38;4889494;28;20330;-80